This is the latest recevied weather packets stored in our database for station/object IT9IJI-15. If no packets are shown the sender has not sent any weather packets the latest 10 day(s).
| Time | Temp. | Humidity | Pressure | Rain* | Wind** | Luminosity | Snow |
|---|---|---|---|---|---|---|---|
| 1777564516 | 31.11° C | 34% | 891.4 hPa | - | - | - | - |
| 1777563616 | 24.44° C | 34% | 884 hPa | - | - | - | - |
| 1777562692 | 31.11° C | 34% | 891.4 hPa | - | - | - | - |
| 1777561792 | 31.11° C | 34% | 891.4 hPa | - | - | - | - |
| 1777560893 | 31.11° C | 34% | 891.2 hPa | - | - | - | - |
| 1777559991 | 31.11° C | 34% | 891.3 hPa | - | - | - | - |
| 1777559091 | 31.11° C | 34% | 891.4 hPa | - | - | - | - |
| 1777558194 | 31.11° C | 34% | 891.3 hPa | - | - | - | - |
| 1777557293 | 31.11° C | 34% | 891.4 hPa | - | - | - | - |
| 1777556394 | 30° C | 34% | 889.6 hPa | - | - | - | - |
| 1777554567 | 31.11° C | 35% | 892.1 hPa | - | - | - | - |
| 1777553667 | 31.11° C | 35% | 891.6 hPa | - | - | - | - |
| 1777552767 | 31.11° C | 35% | 891.7 hPa | - | - | - | - |
| 1777551867 | 31.11° C | 35% | 891.9 hPa | - | - | - | - |
| 1777550967 | 31.11° C | 35% | 891.9 hPa | - | - | - | - |
| 1777550067 | 31.11° C | 35% | 891.8 hPa | - | - | - | - |
| 1777549167 | 31.11° C | 35% | 891.6 hPa | - | - | - | - |
| 1777548267 | 31.11° C | 35% | 891.7 hPa | - | - | - | - |
| 1777547370 | 23.89° C | 35% | 884.5 hPa | - | - | - | - |
| 1777546444 | 31.11° C | 36% | 891.8 hPa | - | - | - | - |
| 1777545543 | 31.11° C | 36% | 892 hPa | - | - | - | - |
| 1777544643 | 31.11° C | 36% | 892 hPa | - | - | - | - |
| 1777543743 | 30.56° C | 36% | 892.1 hPa | - | - | - | - |
| 1777542843 | 30.56° C | 36% | 892.2 hPa | - | - | - | - |
| 1777541044 | 30.56° C | 36% | 897.1 hPa | - | - | - | - |
* Rain since midnight (hover to see other rain measurements)
** Current wind speed in m/s (hover to see current wind gust speed)